sensor_id;sensor_type;location;lat;lon;timestamp;pressure;altitude;pressure_sealevel;temperature;humidity
59971;BME280;45825;45.434;9.116;2023-05-08T00:00:18;100296.84;;;20.96;46.93
59971;BME280;45825;45.434;9.116;2023-05-08T00:02:43;100298.69;;;20.95;45.77
59971;BME280;45825;45.434;9.116;2023-05-08T00:05:09;100303.38;;;20.93;46.58
59971;BME280;45825;45.434;9.116;2023-05-08T00:07:35;100307.94;;;21.01;45.88
59971;BME280;45825;45.434;9.116;2023-05-08T00:10:05;100306.56;;;20.97;46.41
59971;BME280;45825;45.434;9.116;2023-05-08T00:12:31;100301.69;;;20.92;46.33
59971;BME280;45825;45.434;9.116;2023-05-08T00:14:57;100303.19;;;20.94;46.49
59971;BME280;45825;45.434;9.116;2023-05-08T00:17:22;100300.28;;;20.88;46.79
59971;BME280;45825;45.434;9.116;2023-05-08T00:19:47;100300.34;;;20.78;46.96
59971;BME280;45825;45.434;9.116;2023-05-08T00:22:13;100298.81;;;20.75;47.32
59971;BME280;45825;45.434;9.116;2023-05-08T00:24:38;100296.72;;;20.69;47.21
59971;BME280;45825;45.434;9.116;2023-05-08T00:27:04;100298.72;;;20.67;47.20
59971;BME280;45825;45.434;9.116;2023-05-08T00:29:30;100295.78;;;20.60;47.94
59971;BME280;45825;45.434;9.116;2023-05-08T00:31:55;100286.09;;;20.59;47.47
59971;BME280;45825;45.434;9.116;2023-05-08T00:34:20;100289.34;;;20.53;47.79
59971;BME280;45825;45.434;9.116;2023-05-08T00:36:46;100283.34;;;20.51;48.29
59971;BME280;45825;45.434;9.116;2023-05-08T00:39:11;100281.66;;;20.50;48.43
59971;BME280;45825;45.434;9.116;2023-05-08T00:41:37;100281.81;;;20.48;48.77
59971;BME280;45825;45.434;9.116;2023-05-08T00:44:03;100284.19;;;20.51;49.43
59971;BME280;45825;45.434;9.116;2023-05-08T00:46:29;100284.63;;;20.47;50.39
59971;BME280;45825;45.434;9.116;2023-05-08T00:48:54;100293.47;;;20.47;51.67
59971;BME280;45825;45.434;9.116;2023-05-08T00:51:20;100290.06;;;20.55;51.99
59971;BME280;45825;45.434;9.116;2023-05-08T00:53:46;100292.19;;;20.51;53.36
59971;BME280;45825;45.434;9.116;2023-05-08T00:56:12;100301.59;;;20.56;55.15
59971;BME280;45825;45.434;9.116;2023-05-08T00:58:38;100303.72;;;20.52;57.23
59971;BME280;45825;45.434;9.116;2023-05-08T01:01:05;100313.13;;;20.56;58.79
59971;BME280;45825;45.434;9.116;2023-05-08T01:03:32;100317.69;;;20.46;59.29
59971;BME280;45825;45.434;9.116;2023-05-08T01:06:00;100313.22;;;20.36;60.63
59971;BME280;45825;45.434;9.116;2023-05-08T01:08:26;100325.75;;;20.36;61.25
59971;BME280;45825;45.434;9.116;2023-05-08T01:11:00;100340.00;;;20.27;62.25
59971;BME280;45825;45.434;9.116;2023-05-08T01:13:46;100348.34;;;20.14;63.62
59971;BME280;45825;45.434;9.116;2023-05-08T01:16:16;100348.47;;;20.12;63.62
59971;BME280;45825;45.434;9.116;2023-05-08T01:18:53;100363.75;;;20.20;63.47
59971;BME280;45825;45.434;9.116;2023-05-08T01:21:52;100365.31;;;20.22;64.31
59971;BME280;45825;45.434;9.116;2023-05-08T01:27:09;100374.31;;;20.21;65.60
59971;BME280;45825;45.434;9.116;2023-05-08T01:30:01;100376.22;;;20.39;64.69
59971;BME280;45825;45.434;9.116;2023-05-08T01:32:38;100383.69;;;20.35;64.92
59971;BME280;45825;45.434;9.116;2023-05-08T01:37:50;100393.75;;;20.51;64.98
59971;BME280;45825;45.434;9.116;2023-05-08T01:43:24;100397.25;;;20.52;70.95
59971;BME280;45825;45.434;9.116;2023-05-08T01:45:53;100398.53;;;20.48;75.39
59971;BME280;45825;45.434;9.116;2023-05-08T01:48:29;100401.34;;;20.46;78.45
59971;BME280;45825;45.434;9.116;2023-05-08T01:51:00;100405.75;;;20.37;79.51
59971;BME280;45825;45.434;9.116;2023-05-08T01:53:29;100408.13;;;20.41;82.04
59971;BME280;45825;45.434;9.116;2023-05-08T01:56:00;100408.56;;;20.36;85.00
59971;BME280;45825;45.434;9.116;2023-05-08T01:58:27;100398.91;;;20.25;85.95
59971;BME280;45825;45.434;9.116;2023-05-08T02:00:55;100403.44;;;20.15;87.51
59971;BME280;45825;45.434;9.116;2023-05-08T02:03:22;100415.66;;;20.17;100.00
59971;BME280;45825;45.434;9.116;2023-05-08T02:05:49;100415.69;;;19.98;100.00
59971;BME280;45825;45.434;9.116;2023-05-08T02:08:17;100418.19;;;19.89;100.00
59971;BME280;45825;45.434;9.116;2023-05-08T02:10:44;100418.91;;;19.91;100.00
59971;BME280;45825;45.434;9.116;2023-05-08T02:13:13;100423.53;;;19.89;100.00
59971;BME280;45825;45.434;9.116;2023-05-08T02:15:43;100424.81;;;19.75;100.00
59971;BME280;45825;45.434;9.116;2023-05-08T02:18:10;100418.06;;;19.61;100.00
59971;BME280;45825;45.434;9.116;2023-05-08T02:20:37;100421.72;;;19.40;100.00
59971;BME280;45825;45.434;9.116;2023-05-08T02:23:04;100435.19;;;18.88;100.00
59971;BME280;45825;45.434;9.116;2023-05-08T02:25:30;100437.63;;;18.39;100.00
59971;BME280;45825;45.434;9.116;2023-05-08T02:27:57;100444.88;;;18.27;100.00
59971;BME280;45825;45.434;9.116;2023-05-08T02:30:24;100445.19;;;18.12;100.00
59971;BME280;45825;45.434;9.116;2023-05-08T02:32:51;100439.75;;;17.81;100.00
59971;BME280;45825;45.434;9.116;2023-05-08T02:35:18;100440.78;;;17.36;100.00
59971;BME280;45825;45.434;9.116;2023-05-08T02:37:51;100438.97;;;17.25;100.00
59971;BME280;45825;45.434;9.116;2023-05-08T02:40:19;100446.50;;;17.09;100.00
59971;BME280;45825;45.434;9.116;2023-05-08T02:42:46;100442.16;;;16.96;100.00
59971;BME280;45825;45.434;9.116;2023-05-08T02:45:12;100451.69;;;16.65;100.00
59971;BME280;45825;45.434;9.116;2023-05-08T02:48:06;100449.38;;;16.83;100.00
59971;BME280;45825;45.434;9.116;2023-05-08T02:53:39;100439.38;;;17.09;100.00
59971;BME280;45825;45.434;9.116;2023-05-08T02:56:17;100433.00;;;17.00;100.00
59971;BME280;45825;45.434;9.116;2023-05-08T02:58:48;100416.19;;;17.00;100.00
59971;BME280;45825;45.434;9.116;2023-05-08T03:01:26;100420.03;;;16.96;100.00
59971;BME280;45825;45.434;9.116;2023-05-08T03:04:04;100410.47;;;16.93;100.00
59971;BME280;45825;45.434;9.116;2023-05-08T03:06:39;100408.09;;;16.90;100.00
59971;BME280;45825;45.434;9.116;2023-05-08T03:09:06;100413.13;;;16.93;100.00
59971;BME280;45825;45.434;9.116;2023-05-08T03:11:40;100416.53;;;17.07;100.00
59971;BME280;45825;45.434;9.116;2023-05-08T03:14:10;100416.94;;;17.02;100.00
59971;BME280;45825;45.434;9.116;2023-05-08T03:16:38;100418.34;;;16.95;100.00
59971;BME280;45825;45.434;9.116;2023-05-08T03:19:20;100422.25;;;17.02;100.00
59971;BME280;45825;45.434;9.116;2023-05-08T03:21:51;100426.06;;;16.98;100.00
59971;BME280;45825;45.434;9.116;2023-05-08T03:24:19;100431.28;;;16.99;100.00
59971;BME280;45825;45.434;9.116;2023-05-08T03:26:46;100428.28;;;17.04;100.00
59971;BME280;45825;45.434;9.116;2023-05-08T03:29:12;100424.38;;;17.08;100.00
59971;BME280;45825;45.434;9.116;2023-05-08T03:31:39;100432.63;;;17.05;100.00
59971;BME280;45825;45.434;9.116;2023-05-08T03:34:05;100428.50;;;17.12;100.00
59971;BME280;45825;45.434;9.116;2023-05-08T03:36:32;100435.16;;;17.18;100.00
59971;BME280;45825;45.434;9.116;2023-05-08T03:38:58;100438.38;;;17.22;100.00
59971;BME280;45825;45.434;9.116;2023-05-08T03:41:24;100433.22;;;17.09;100.00
59971;BME280;45825;45.434;9.116;2023-05-08T03:43:50;100444.56;;;17.11;100.00
59971;BME280;45825;45.434;9.116;2023-05-08T03:46:16;100446.34;;;17.22;100.00
59971;BME280;45825;45.434;9.116;2023-05-08T03:48:43;100452.63;;;17.21;100.00
59971;BME280;45825;45.434;9.116;2023-05-08T03:51:08;100448.97;;;17.33;100.00
59971;BME280;45825;45.434;9.116;2023-05-08T03:53:34;100455.50;;;17.40;100.00
59971;BME280;45825;45.434;9.116;2023-05-08T03:56:00;100461.69;;;17.41;100.00
59971;BME280;45825;45.434;9.116;2023-05-08T04:01:36;100465.41;;;17.50;100.00
59971;BME280;45825;45.434;9.116;2023-05-08T04:04:18;100472.13;;;17.54;100.00
59971;BME280;45825;45.434;9.116;2023-05-08T04:06:50;100467.91;;;17.63;100.00
59971;BME280;45825;45.434;9.116;2023-05-08T04:09:34;100466.66;;;17.67;100.00
59971;BME280;45825;45.434;9.116;2023-05-08T04:15:12;100472.59;;;17.70;100.00
59971;BME280;45825;45.434;9.116;2023-05-08T04:17:42;100478.16;;;17.67;100.00
59971;BME280;45825;45.434;9.116;2023-05-08T04:20:12;100474.53;;;17.68;100.00
59971;BME280;45825;45.434;9.116;2023-05-08T04:22:40;100476.22;;;17.69;100.00
59971;BME280;45825;45.434;9.116;2023-05-08T04:25:07;100472.25;;;17.64;100.00
59971;BME280;45825;45.434;9.116;2023-05-08T04:27:34;100478.78;;;17.59;100.00
59971;BME280;45825;45.434;9.116;2023-05-08T04:30:00;100480.22;;;17.64;100.00
59971;BME280;45825;45.434;9.116;2023-05-08T04:32:28;100483.63;;;17.54;100.00
59971;BME280;45825;45.434;9.116;2023-05-08T04:34:54;100480.13;;;17.54;100.00
59971;BME280;45825;45.434;9.116;2023-05-08T04:37:24;100487.94;;;17.67;100.00
59971;BME280;45825;45.434;9.116;2023-05-08T04:39:51;100492.53;;;17.76;100.00
59971;BME280;45825;45.434;9.116;2023-05-08T04:42:16;100489.16;;;17.74;100.00
59971;BME280;45825;45.434;9.116;2023-05-08T04:44:42;100487.09;;;17.66;100.00
59971;BME280;45825;45.434;9.116;2023-05-08T04:47:07;100485.94;;;17.59;100.00
59971;BME280;45825;45.434;9.116;2023-05-08T04:49:32;100488.84;;;17.56;100.00
59971;BME280;45825;45.434;9.116;2023-05-08T04:51:58;100488.63;;;17.48;100.00
59971;BME280;45825;45.434;9.116;2023-05-08T04:54:23;100491.72;;;17.53;100.00
59971;BME280;45825;45.434;9.116;2023-05-08T04:56:48;100492.94;;;17.60;100.00
59971;BME280;45825;45.434;9.116;2023-05-08T04:59:13;100506.94;;;17.62;100.00
59971;BME280;45825;45.434;9.116;2023-05-08T05:01:39;100498.72;;;17.65;100.00
59971;BME280;45825;45.434;9.116;2023-05-08T05:04:04;100508.88;;;17.71;100.00
59971;BME280;45825;45.434;9.116;2023-05-08T05:06:29;100499.56;;;17.66;100.00
59971;BME280;45825;45.434;9.116;2023-05-08T05:08:55;100508.97;;;17.70;100.00
59971;BME280;45825;45.434;9.116;2023-05-08T05:11:20;100511.78;;;17.68;100.00
59971;BME280;45825;45.434;9.116;2023-05-08T05:13:46;100512.59;;;17.69;100.00
59971;BME280;45825;45.434;9.116;2023-05-08T05:16:12;100518.88;;;17.79;100.00
59971;BME280;45825;45.434;9.116;2023-05-08T05:18:37;100520.22;;;17.73;100.00
59971;BME280;45825;45.434;9.116;2023-05-08T05:21:02;100522.38;;;17.80;100.00
59971;BME280;45825;45.434;9.116;2023-05-08T05:23:28;100523.44;;;17.88;100.00
59971;BME280;45825;45.434;9.116;2023-05-08T05:25:53;100521.63;;;17.89;100.00
59971;BME280;45825;45.434;9.116;2023-05-08T05:28:18;100525.66;;;17.83;100.00
59971;BME280;45825;45.434;9.116;2023-05-08T05:30:46;100522.19;;;17.93;100.00
59971;BME280;45825;45.434;9.116;2023-05-08T05:33:12;100519.91;;;17.88;100.00
59971;BME280;45825;45.434;9.116;2023-05-08T05:35:37;100516.34;;;17.78;100.00
59971;BME280;45825;45.434;9.116;2023-05-08T05:38:02;100517.53;;;17.85;100.00
59971;BME280;45825;45.434;9.116;2023-05-08T05:40:27;100515.78;;;17.95;100.00
59971;BME280;45825;45.434;9.116;2023-05-08T05:42:53;100516.97;;;18.02;100.00
59971;BME280;45825;45.434;9.116;2023-05-08T05:45:18;100521.09;;;18.07;100.00
59971;BME280;45825;45.434;9.116;2023-05-08T05:47:44;100528.69;;;18.11;100.00
59971;BME280;45825;45.434;9.116;2023-05-08T05:50:13;100525.91;;;18.13;100.00
59971;BME280;45825;45.434;9.116;2023-05-08T05:52:39;100529.41;;;18.13;100.00
59971;BME280;45825;45.434;9.116;2023-05-08T05:55:04;100534.75;;;18.13;100.00
59971;BME280;45825;45.434;9.116;2023-05-08T05:57:29;100532.66;;;18.17;100.00
59971;BME280;45825;45.434;9.116;2023-05-08T05:59:55;100539.22;;;18.13;100.00
59971;BME280;45825;45.434;9.116;2023-05-08T06:02:20;100532.94;;;18.14;100.00
59971;BME280;45825;45.434;9.116;2023-05-08T06:04:45;100536.56;;;18.13;100.00
59971;BME280;45825;45.434;9.116;2023-05-08T06:07:11;100536.94;;;18.08;100.00
59971;BME280;45825;45.434;9.116;2023-05-08T06:09:36;100539.69;;;18.18;100.00
59971;BME280;45825;45.434;9.116;2023-05-08T06:12:01;100539.84;;;18.17;100.00
59971;BME280;45825;45.434;9.116;2023-05-08T06:14:27;100531.19;;;18.24;100.00
59971;BME280;45825;45.434;9.116;2023-05-08T06:16:52;100537.13;;;18.28;100.00
59971;BME280;45825;45.434;9.116;2023-05-08T06:19:17;100535.88;;;18.32;100.00
59971;BME280;45825;45.434;9.116;2023-05-08T06:21:43;100539.94;;;18.36;100.00
59971;BME280;45825;45.434;9.116;2023-05-08T06:24:08;100541.78;;;18.36;100.00
59971;BME280;45825;45.434;9.116;2023-05-08T06:26:33;100543.59;;;18.35;100.00
59971;BME280;45825;45.434;9.116;2023-05-08T06:28:59;100541.84;;;18.24;100.00
59971;BME280;45825;45.434;9.116;2023-05-08T06:31:24;100555.22;;;18.34;100.00
59971;BME280;45825;45.434;9.116;2023-05-08T06:33:49;100550.38;;;18.39;100.00
59971;BME280;45825;45.434;9.116;2023-05-08T06:36:14;100546.03;;;18.38;100.00
59971;BME280;45825;45.434;9.116;2023-05-08T06:38:40;100546.84;;;18.39;100.00
59971;BME280;45825;45.434;9.116;2023-05-08T06:41:05;100550.09;;;18.42;100.00
59971;BME280;45825;45.434;9.116;2023-05-08T06:43:30;100556.72;;;18.48;100.00
59971;BME280;45825;45.434;9.116;2023-05-08T06:45:56;100552.69;;;18.54;100.00
59971;BME280;45825;45.434;9.116;2023-05-08T06:48:21;100548.78;;;18.58;100.00
59971;BME280;45825;45.434;9.116;2023-05-08T06:50:46;100545.28;;;18.57;100.00
59971;BME280;45825;45.434;9.116;2023-05-08T06:53:12;100543.06;;;18.63;100.00
59971;BME280;45825;45.434;9.116;2023-05-08T06:55:37;100545.03;;;18.61;100.00
59971;BME280;45825;45.434;9.116;2023-05-08T06:58:03;100540.56;;;18.61;100.00
59971;BME280;45825;45.434;9.116;2023-05-08T07:00:28;100545.81;;;18.73;100.00
59971;BME280;45825;45.434;9.116;2023-05-08T07:02:54;100550.59;;;18.79;100.00
59971;BME280;45825;45.434;9.116;2023-05-08T07:05:19;100551.41;;;18.69;100.00
59971;BME280;45825;45.434;9.116;2023-05-08T07:07:44;100556.59;;;18.71;100.00
59971;BME280;45825;45.434;9.116;2023-05-08T07:10:10;100554.56;;;18.84;100.00
59971;BME280;45825;45.434;9.116;2023-05-08T07:12:35;100560.75;;;18.64;100.00
59971;BME280;45825;45.434;9.116;2023-05-08T07:15:01;100563.22;;;18.77;100.00
59971;BME280;45825;45.434;9.116;2023-05-08T07:17:26;100562.91;;;18.70;100.00
59971;BME280;45825;45.434;9.116;2023-05-08T07:19:52;100565.75;;;18.57;100.00
59971;BME280;45825;45.434;9.116;2023-05-08T07:22:17;100577.91;;;18.71;100.00
59971;BME280;45825;45.434;9.116;2023-05-08T07:24:43;100576.94;;;18.72;100.00
59971;BME280;45825;45.434;9.116;2023-05-08T07:27:08;100583.13;;;18.73;100.00
59971;BME280;45825;45.434;9.116;2023-05-08T07:29:34;100582.38;;;18.92;100.00
59971;BME280;45825;45.434;9.116;2023-05-08T07:32:02;100581.25;;;19.16;100.00
59971;BME280;45825;45.434;9.116;2023-05-08T07:34:32;100578.09;;;19.32;100.00
59971;BME280;45825;45.434;9.116;2023-05-08T07:36:58;100577.88;;;19.45;100.00
59971;BME280;45825;45.434;9.116;2023-05-08T07:39:23;100577.94;;;19.64;100.00
59971;BME280;45825;45.434;9.116;2023-05-08T07:41:48;100578.22;;;19.71;100.00
59971;BME280;45825;45.434;9.116;2023-05-08T07:44:13;100574.44;;;19.74;100.00
59971;BME280;45825;45.434;9.116;2023-05-08T07:46:39;100561.50;;;19.79;100.00
59971;BME280;45825;45.434;9.116;2023-05-08T07:49:04;100562.91;;;19.83;100.00
59971;BME280;45825;45.434;9.116;2023-05-08T07:51:30;100579.69;;;19.95;100.00
59971;BME280;45825;45.434;9.116;2023-05-08T07:53:56;100572.88;;;19.71;100.00
59971;BME280;45825;45.434;9.116;2023-05-08T07:56:21;100578.50;;;19.78;100.00
59971;BME280;45825;45.434;9.116;2023-05-08T07:58:47;100577.53;;;19.69;100.00
59971;BME280;45825;45.434;9.116;2023-05-08T08:01:12;100573.94;;;20.00;100.00
59971;BME280;45825;45.434;9.116;2023-05-08T08:03:38;100579.56;;;20.06;100.00
59971;BME280;45825;45.434;9.116;2023-05-08T08:06:03;100578.72;;;20.26;100.00
59971;BME280;45825;45.434;9.116;2023-05-08T08:08:28;100577.31;;;20.21;100.00
59971;BME280;45825;45.434;9.116;2023-05-08T08:10:54;100579.69;;;20.05;100.00
59971;BME280;45825;45.434;9.116;2023-05-08T08:13:19;100581.13;;;20.09;100.00
59971;BME280;45825;45.434;9.116;2023-05-08T08:15:45;100580.13;;;20.10;100.00
59971;BME280;45825;45.434;9.116;2023-05-08T08:18:10;100579.56;;;19.96;100.00
59971;BME280;45825;45.434;9.116;2023-05-08T08:20:36;100581.25;;;20.07;100.00
59971;BME280;45825;45.434;9.116;2023-05-08T08:23:01;100584.91;;;20.06;100.00
59971;BME280;45825;45.434;9.116;2023-05-08T08:25:27;100585.72;;;19.97;100.00
59971;BME280;45825;45.434;9.116;2023-05-08T08:27:52;100578.44;;;20.09;100.00
59971;BME280;45825;45.434;9.116;2023-05-08T08:30:18;100583.38;;;20.14;100.00
59971;BME280;45825;45.434;9.116;2023-05-08T08:32:43;100584.34;;;20.22;100.00
59971;BME280;45825;45.434;9.116;2023-05-08T08:35:08;100579.56;;;20.36;100.00
59971;BME280;45825;45.434;9.116;2023-05-08T08:37:34;100578.44;;;20.38;100.00
59971;BME280;45825;45.434;9.116;2023-05-08T08:39:59;100582.94;;;20.48;100.00
59971;BME280;45825;45.434;9.116;2023-05-08T08:42:25;100569.13;;;20.43;100.00
59971;BME280;45825;45.434;9.116;2023-05-08T08:44:50;100589.69;;;20.42;100.00
59971;BME280;45825;45.434;9.116;2023-05-08T08:47:18;100587.16;;;20.41;100.00
59971;BME280;45825;45.434;9.116;2023-05-08T08:49:46;100587.84;;;20.52;100.00
59971;BME280;45825;45.434;9.116;2023-05-08T08:52:25;100586.16;;;20.61;100.00
59971;BME280;45825;45.434;9.116;2023-05-08T08:54:55;100584.88;;;20.65;100.00
59971;BME280;45825;45.434;9.116;2023-05-08T08:57:22;100583.03;;;20.66;100.00
59971;BME280;45825;45.434;9.116;2023-05-08T08:59:48;100583.91;;;20.66;100.00
59971;BME280;45825;45.434;9.116;2023-05-08T09:02:14;100581.31;;;20.75;100.00
59971;BME280;45825;45.434;9.116;2023-05-08T09:04:42;100582.31;;;20.74;100.00
59971;BME280;45825;45.434;9.116;2023-05-08T09:07:08;100577.28;;;20.71;100.00
59971;BME280;45825;45.434;9.116;2023-05-08T09:09:34;100579.53;;;20.65;100.00
59971;BME280;45825;45.434;9.116;2023-05-08T09:12:01;100583.31;;;20.73;100.00
59971;BME280;45825;45.434;9.116;2023-05-08T09:14:27;100577.13;;;20.82;100.00
59971;BME280;45825;45.434;9.116;2023-05-08T09:16:53;100577.53;;;20.77;100.00
59971;BME280;45825;45.434;9.116;2023-05-08T09:19:19;100574.72;;;20.89;100.00
59971;BME280;45825;45.434;9.116;2023-05-08T09:21:45;100585.66;;;21.05;100.00
59971;BME280;45825;45.434;9.116;2023-05-08T09:24:10;100585.09;;;21.02;100.00
59971;BME280;45825;45.434;9.116;2023-05-08T09:26:38;100586.09;;;21.01;100.00
59971;BME280;45825;45.434;9.116;2023-05-08T09:29:13;100589.72;;;21.10;100.00
59971;BME280;45825;45.434;9.116;2023-05-08T09:31:41;100589.84;;;21.18;100.00
59971;BME280;45825;45.434;9.116;2023-05-08T09:34:07;100584.47;;;21.18;100.00
59971;BME280;45825;45.434;9.116;2023-05-08T09:36:33;100580.56;;;21.40;100.00
59971;BME280;45825;45.434;9.116;2023-05-08T09:38:59;100577.84;;;21.50;100.00
59971;BME280;45825;45.434;9.116;2023-05-08T09:41:25;100582.28;;;21.69;100.00
59971;BME280;45825;45.434;9.116;2023-05-08T09:44:01;100590.19;;;21.89;100.00
59971;BME280;45825;45.434;9.116;2023-05-08T09:46:27;100597.22;;;21.90;100.00
59971;BME280;45825;45.434;9.116;2023-05-08T09:48:57;100591.50;;;22.03;100.00
59971;BME280;45825;45.434;9.116;2023-05-08T09:51:24;100589.59;;;21.95;100.00
59971;BME280;45825;45.434;9.116;2023-05-08T09:53:50;100601.13;;;21.96;100.00
59971;BME280;45825;45.434;9.116;2023-05-08T09:56:38;100591.16;;;21.70;100.00
59971;BME280;45825;45.434;9.116;2023-05-08T09:59:23;100594.97;;;21.67;100.00
59971;BME280;45825;45.434;9.116;2023-05-08T10:01:48;100601.72;;;21.71;100.00
59971;BME280;45825;45.434;9.116;2023-05-08T10:04:14;100592.69;;;21.72;100.00
59971;BME280;45825;45.434;9.116;2023-05-08T10:06:40;100587.41;;;21.81;100.00
59971;BME280;45825;45.434;9.116;2023-05-08T10:09:12;100597.78;;;22.12;100.00
59971;BME280;45825;45.434;9.116;2023-05-08T10:11:48;100590.91;;;22.27;100.00
59971;BME280;45825;45.434;9.116;2023-05-08T10:14:22;100595.25;;;22.46;100.00
59971;BME280;45825;45.434;9.116;2023-05-08T10:16:50;100585.97;;;22.59;100.00
59971;BME280;45825;45.434;9.116;2023-05-08T10:19:23;100590.09;;;22.71;100.00
59971;BME280;45825;45.434;9.116;2023-05-08T10:21:51;100592.34;;;22.84;100.00
59971;BME280;45825;45.434;9.116;2023-05-08T10:24:18;100593.50;;;22.82;100.00
59971;BME280;45825;45.434;9.116;2023-05-08T10:27:00;100597.03;;;22.82;100.00
59971;BME280;45825;45.434;9.116;2023-05-08T10:29:46;100587.72;;;22.68;100.00
59971;BME280;45825;45.434;9.116;2023-05-08T10:32:18;100586.25;;;22.74;100.00
59971;BME280;45825;45.434;9.116;2023-05-08T10:34:46;100590.59;;;22.49;100.00
59971;BME280;45825;45.434;9.116;2023-05-08T10:37:13;100587.53;;;22.43;100.00
59971;BME280;45825;45.434;9.116;2023-05-08T10:39:40;100584.09;;;22.51;100.00
59971;BME280;45825;45.434;9.116;2023-05-08T10:42:07;100580.94;;;22.19;100.00
59971;BME280;45825;45.434;9.116;2023-05-08T10:44:32;100581.75;;;22.38;100.00
59971;BME280;45825;45.434;9.116;2023-05-08T10:47:10;100576.25;;;22.40;100.00
59971;BME280;45825;45.434;9.116;2023-05-08T10:49:48;100574.38;;;22.50;100.00
59971;BME280;45825;45.434;9.116;2023-05-08T10:52:27;100570.38;;;22.54;100.00
59971;BME280;45825;45.434;9.116;2023-05-08T10:57:29;100580.47;;;23.22;100.00
59971;BME280;45825;45.434;9.116;2023-05-08T10:59:54;100589.47;;;23.30;100.00
59971;BME280;45825;45.434;9.116;2023-05-08T11:02:27;100582.00;;;23.24;100.00
59971;BME280;45825;45.434;9.116;2023-05-08T11:05:16;100575.75;;;23.42;100.00
59971;BME280;45825;45.434;9.116;2023-05-08T11:07:54;100564.88;;;23.60;100.00
59971;BME280;45825;45.434;9.116;2023-05-08T11:10:20;100570.28;;;23.77;100.00
59971;BME280;45825;45.434;9.116;2023-05-08T11:12:48;100554.94;;;24.12;100.00
59971;BME280;45825;45.434;9.116;2023-05-08T11:15:14;100555.75;;;24.12;100.00
59971;BME280;45825;45.434;9.116;2023-05-08T11:17:39;100551.16;;;23.88;100.00
59971;BME280;45825;45.434;9.116;2023-05-08T11:20:10;100548.38;;;24.06;100.00
59971;BME280;45825;45.434;9.116;2023-05-08T11:22:35;100545.16;;;24.11;100.00
59971;BME280;45825;45.434;9.116;2023-05-08T11:25:04;100550.06;;;24.40;100.00
59971;BME280;45825;45.434;9.116;2023-05-08T11:33:15;100546.25;;;25.00;100.00
59971;BME280;45825;45.434;9.116;2023-05-08T11:35:41;100546.25;;;25.00;100.00
59971;BME280;45825;45.434;9.116;2023-05-08T11:40:56;100534.38;;;24.61;100.00
59971;BME280;45825;45.434;9.116;2023-05-08T11:45:52;100539.16;;;25.07;100.00
59971;BME280;45825;45.434;9.116;2023-05-08T11:48:18;100542.31;;;25.19;100.00
59971;BME280;45825;45.434;9.116;2023-05-08T11:50:43;100539.41;;;25.29;100.00
59971;BME280;45825;45.434;9.116;2023-05-08T11:53:09;100537.53;;;25.29;100.00
59971;BME280;45825;45.434;9.116;2023-05-08T11:55:35;100542.59;;;25.32;100.00
59971;BME280;45825;45.434;9.116;2023-05-08T11:58:00;100536.63;;;25.53;100.00
59971;BME280;45825;45.434;9.116;2023-05-08T12:00:25;100535.97;;;25.51;100.00
59971;BME280;45825;45.434;9.116;2023-05-08T12:02:51;100537.16;;;25.41;100.00
59971;BME280;45825;45.434;9.116;2023-05-08T12:05:25;100527.38;;;25.16;100.00
59971;BME280;45825;45.434;9.116;2023-05-08T12:07:51;100526.94;;;25.67;100.00
59971;BME280;45825;45.434;9.116;2023-05-08T12:10:16;100528.44;;;25.70;100.00
59971;BME280;45825;45.434;9.116;2023-05-08T12:12:42;100525.88;;;25.77;100.00
59971;BME280;45825;45.434;9.116;2023-05-08T12:15:11;100528.78;;;25.67;100.00
59971;BME280;45825;45.434;9.116;2023-05-08T12:17:36;100513.25;;;25.46;100.00
59971;BME280;45825;45.434;9.116;2023-05-08T12:20:09;100524.91;;;25.38;100.00
59971;BME280;45825;45.434;9.116;2023-05-08T12:22:36;100515.34;;;25.27;100.00
59971;BME280;45825;45.434;9.116;2023-05-08T12:25:03;100524.84;;;25.06;100.00
59971;BME280;45825;45.434;9.116;2023-05-08T12:27:29;100512.94;;;25.01;100.00
59971;BME280;45825;45.434;9.116;2023-05-08T12:29:56;100522.38;;;25.05;100.00
59971;BME280;45825;45.434;9.116;2023-05-08T12:32:22;100523.00;;;25.15;100.00
59971;BME280;45825;45.434;9.116;2023-05-08T12:34:47;100523.31;;;25.12;100.00
59971;BME280;45825;45.434;9.116;2023-05-08T12:37:22;100514.09;;;25.06;100.00
59971;BME280;45825;45.434;9.116;2023-05-08T12:39:48;100510.47;;;24.91;100.00
59971;BME280;45825;45.434;9.116;2023-05-08T12:42:13;100508.78;;;24.90;100.00
59971;BME280;45825;45.434;9.116;2023-05-08T12:44:38;100506.97;;;24.74;100.00
59971;BME280;45825;45.434;9.116;2023-05-08T12:47:04;100512.66;;;24.87;99.10
59971;BME280;45825;45.434;9.116;2023-05-08T12:49:31;100502.06;;;24.86;99.57
59971;BME280;45825;45.434;9.116;2023-05-08T12:52:07;100500.31;;;25.09;100.00
59971;BME280;45825;45.434;9.116;2023-05-08T12:54:34;100498.31;;;25.35;100.00
59971;BME280;45825;45.434;9.116;2023-05-08T12:57:00;100495.78;;;25.42;98.03
59971;BME280;45825;45.434;9.116;2023-05-08T12:59:32;100502.94;;;25.58;100.00
59971;BME280;45825;45.434;9.116;2023-05-08T13:01:57;100500.28;;;25.73;98.76
59971;BME280;45825;45.434;9.116;2023-05-08T13:04:22;100492.00;;;25.51;96.00
59971;BME280;45825;45.434;9.116;2023-05-08T13:06:55;100489.09;;;25.61;95.33
59971;BME280;45825;45.434;9.116;2023-05-08T13:09:21;100496.22;;;25.45;94.34
59971;BME280;45825;45.434;9.116;2023-05-08T13:11:49;100486.66;;;25.43;92.75
59971;BME280;45825;45.434;9.116;2023-05-08T13:14:15;100481.94;;;25.45;96.28
59971;BME280;45825;45.434;9.116;2023-05-08T13:16:44;100485.97;;;25.41;95.58